createdAt,value
2022-10-18T00:00:19.918Z,13.64
2022-10-18T00:02:46.976Z,13.63
2022-10-18T00:05:13.906Z,13.64
2022-10-18T00:07:40.872Z,13.63
2022-10-18T00:10:08.487Z,13.63
2022-10-18T00:12:36.893Z,13.64
2022-10-18T00:15:07.143Z,13.64
2022-10-18T00:17:38.611Z,13.66
2022-10-18T00:20:06.818Z,13.66
2022-10-18T00:22:37.166Z,13.65
2022-10-18T00:25:05.439Z,13.65
2022-10-18T00:27:33.119Z,13.68
2022-10-18T00:30:00.376Z,13.68
2022-10-18T00:32:28.107Z,13.69
2022-10-18T00:34:55.231Z,13.69
2022-10-18T00:37:22.121Z,13.67
2022-10-18T00:39:49.059Z,13.69
2022-10-18T00:42:21.566Z,13.69
2022-10-18T00:44:51.550Z,13.70
2022-10-18T00:47:19.991Z,13.69
2022-10-18T00:49:52.125Z,13.68
2022-10-18T00:52:29.072Z,13.68
2022-10-18T00:54:58.018Z,13.68
2022-10-18T00:57:26.198Z,13.67
2022-10-18T00:59:54.136Z,13.67
2022-10-18T01:02:21.891Z,13.68
2022-10-18T01:04:49.522Z,13.65
2022-10-18T01:07:38.499Z,13.67
2022-10-18T01:10:50.316Z,13.65
2022-10-18T01:13:53.233Z,13.65
2022-10-18T01:16:38.243Z,13.64
2022-10-18T01:19:44.524Z,13.62
2022-10-18T01:22:28.479Z,13.61
2022-10-18T01:25:11.075Z,13.59
2022-10-18T01:28:08.559Z,13.56
2022-10-18T01:30:46.156Z,13.55
2022-10-18T01:33:25.046Z,13.55
2022-10-18T01:36:00.115Z,13.55
2022-10-18T01:38:30.259Z,13.55
2022-10-18T01:40:58.524Z,13.55
2022-10-18T01:43:28.035Z,13.55
2022-10-18T01:45:57.072Z,13.55
2022-10-18T01:48:24.033Z,13.54
2022-10-18T01:50:53.040Z,13.55
2022-10-18T01:53:33.094Z,13.52
2022-10-18T01:56:20.376Z,13.52
2022-10-18T01:59:10.984Z,13.54
2022-10-18T02:02:24.435Z,13.55
2022-10-18T02:04:53.205Z,13.52
2022-10-18T02:07:55.306Z,13.50
2022-10-18T02:10:41.544Z,13.48
2022-10-18T02:13:12.957Z,13.45
2022-10-18T02:15:44.296Z,13.44
2022-10-18T02:18:21.292Z,13.42
2022-10-18T02:20:49.197Z,13.33
2022-10-18T02:23:22.352Z,13.35
2022-10-18T02:25:49.560Z,13.36
2022-10-18T02:28:16.528Z,13.33
2022-10-18T02:31:09.196Z,13.30
2022-10-18T02:34:00.766Z,13.28
2022-10-18T02:36:33.822Z,13.23
2022-10-18T02:39:08.136Z,13.21
2022-10-18T02:41:35.083Z,13.19
2022-10-18T02:44:02.124Z,13.14
2022-10-18T02:46:29.222Z,13.10
2022-10-18T02:48:56.091Z,13.05
2022-10-18T02:51:23.175Z,13.04
2022-10-18T02:53:50.048Z,12.99
2022-10-18T02:56:17.080Z,12.97
2022-10-18T02:58:43.963Z,12.95
2022-10-18T03:01:11.038Z,12.91
2022-10-18T03:03:38.004Z,12.88
2022-10-18T03:06:05.306Z,12.85
2022-10-18T03:08:32.274Z,12.83
2022-10-18T03:10:59.295Z,12.77
2022-10-18T03:13:26.264Z,12.75
2022-10-18T03:15:53.164Z,12.72
2022-10-18T03:18:20.035Z,12.70
2022-10-18T03:20:46.983Z,12.69
2022-10-18T03:23:13.860Z,12.64
2022-10-18T03:25:42.900Z,12.62
2022-10-18T03:28:12.593Z,12.60
2022-10-18T03:30:39.487Z,12.59
2022-10-18T03:33:07.302Z,12.57
2022-10-18T03:35:34.260Z,12.55
2022-10-18T03:38:01.113Z,12.54
2022-10-18T03:40:28.034Z,12.53
2022-10-18T03:42:54.920Z,12.49
2022-10-18T03:45:21.784Z,12.46
2022-10-18T03:47:48.660Z,12.46
2022-10-18T03:50:15.650Z,12.43
2022-10-18T03:52:42.526Z,12.40
2022-10-18T03:55:09.690Z,12.38
2022-10-18T03:57:36.579Z,12.35
2022-10-18T04:00:05.143Z,12.32
2022-10-18T04:02:32.188Z,12.29
2022-10-18T04:04:59.277Z,12.27
2022-10-18T04:07:26.180Z,12.22
2022-10-18T04:09:53.081Z,12.18
2022-10-18T04:12:20.017Z,12.12
2022-10-18T04:14:46.884Z,12.07
2022-10-18T04:17:13.802Z,12.04
2022-10-18T04:19:41.670Z,12.00
2022-10-18T04:22:09.587Z,11.97
2022-10-18T04:24:36.531Z,11.93
2022-10-18T04:27:05.939Z,11.88
2022-10-18T04:29:33.218Z,11.83
2022-10-18T04:32:00.646Z,11.78
2022-10-18T04:34:27.525Z,11.73
2022-10-18T04:36:54.483Z,11.69
2022-10-18T04:39:21.777Z,11.65
2022-10-18T04:41:48.641Z,11.62
2022-10-18T04:44:15.599Z,11.57
2022-10-18T04:46:42.498Z,11.55
2022-10-18T04:49:09.382Z,11.53
2022-10-18T04:51:37.327Z,11.50
2022-10-18T04:54:04.267Z,11.47
2022-10-18T04:56:31.139Z,11.44
2022-10-18T04:58:59.533Z,11.42
2022-10-18T05:01:26.616Z,11.39
2022-10-18T05:03:55.234Z,11.35
2022-10-18T05:06:23.011Z,11.33
2022-10-18T05:08:50.033Z,11.32
2022-10-18T05:11:16.999Z,11.32
2022-10-18T05:13:46.050Z,11.32
2022-10-18T05:16:16.024Z,11.30
2022-10-18T05:18:43.237Z,11.28
2022-10-18T05:21:10.307Z,11.28
2022-10-18T05:23:37.178Z,11.25
2022-10-18T05:26:07.077Z,11.22
2022-10-18T05:28:39.609Z,11.20
2022-10-18T05:31:10.098Z,11.19
2022-10-18T05:33:37.014Z,11.18
2022-10-18T05:36:04.627Z,11.16
2022-10-18T05:38:31.613Z,11.15
2022-10-18T05:40:59.560Z,11.15
2022-10-18T05:43:30.154Z,11.15
2022-10-18T05:45:57.116Z,11.16
2022-10-18T05:48:24.064Z,11.19
2022-10-18T05:50:51.407Z,11.20
2022-10-18T05:53:35.871Z,11.20
2022-10-18T05:56:04.247Z,11.19
2022-10-18T05:58:31.178Z,11.20
2022-10-18T06:01:02.179Z,11.19
2022-10-18T06:03:30.823Z,11.17
2022-10-18T06:06:06.002Z,11.17
2022-10-18T06:08:34.330Z,11.18
2022-10-18T06:11:10.317Z,11.18
2022-10-18T06:13:46.253Z,11.18
2022-10-18T06:16:15.771Z,11.16
2022-10-18T06:18:42.850Z,11.17
2022-10-18T06:21:10.439Z,11.20
2022-10-18T06:23:37.367Z,11.19
2022-10-18T06:26:07.797Z,11.20
2022-10-18T06:28:37.261Z,11.21
2022-10-18T06:31:06.086Z,11.23
2022-10-18T06:33:35.140Z,11.25
2022-10-18T06:36:15.958Z,11.24
2022-10-18T06:38:43.360Z,11.26
2022-10-18T06:41:11.120Z,11.26
2022-10-18T06:43:38.032Z,11.28
2022-10-18T06:46:08.029Z,11.30
2022-10-18T06:48:36.902Z,11.30
2022-10-18T06:51:06.811Z,11.29
2022-10-18T06:53:44.066Z,11.32
2022-10-18T06:56:20.246Z,11.34
2022-10-18T06:58:47.167Z,11.32
2022-10-18T07:01:16.805Z,11.36
2022-10-18T07:03:45.632Z,11.40
2022-10-18T07:06:14.844Z,11.41
2022-10-18T07:08:42.814Z,11.43
2022-10-18T07:11:17.700Z,11.44
2022-10-18T07:13:44.756Z,11.45
2022-10-18T07:16:18.171Z,11.45
2022-10-18T07:18:50.776Z,11.49
2022-10-18T07:21:21.767Z,11.50
2022-10-18T07:23:49.563Z,11.52
2022-10-18T07:26:23.062Z,11.53
2022-10-18T07:29:06.596Z,11.53
2022-10-18T07:31:33.749Z,11.56
2022-10-18T07:34:01.019Z,11.57
2022-10-18T07:36:27.944Z,11.59
2022-10-18T07:38:55.308Z,11.61
2022-10-18T07:41:22.924Z,11.62
2022-10-18T07:43:52.323Z,11.65
2022-10-18T07:46:21.864Z,11.65
2022-10-18T07:48:48.938Z,11.67
2022-10-18T07:51:15.916Z,11.69
2022-10-18T07:53:42.911Z,11.72
2022-10-18T07:56:16.418Z,11.74
2022-10-18T07:58:48.805Z,11.78
2022-10-18T08:01:16.155Z,11.81
2022-10-18T08:03:43.775Z,11.82
2022-10-18T08:06:13.534Z,11.85
2022-10-18T08:08:41.457Z,11.86
2022-10-18T08:11:12.753Z,11.90
2022-10-18T08:13:39.684Z,11.96
2022-10-18T08:16:10.565Z,11.98
2022-10-18T08:18:39.004Z,12.01
2022-10-18T08:21:08.876Z,12.05
2022-10-18T08:23:36.940Z,12.11
2022-10-18T08:26:07.875Z,12.15
2022-10-18T08:28:37.689Z,12.21
2022-10-18T08:31:12.721Z,12.23
2022-10-18T08:33:40.168Z,12.26
2022-10-18T08:36:10.577Z,12.31
2022-10-18T08:38:40.029Z,12.33
2022-10-18T08:41:37.955Z,12.39
2022-10-18T08:44:24.919Z,12.44
2022-10-18T08:47:06.073Z,12.48
2022-10-18T08:49:46.820Z,12.56
2022-10-18T08:52:43.309Z,12.60
2022-10-18T08:55:25.368Z,12.65
2022-10-18T08:57:52.844Z,12.70
2022-10-18T09:00:25.956Z,12.74
2022-10-18T09:03:40.284Z,12.78
2022-10-18T09:06:25.109Z,12.87
2022-10-18T09:09:23.880Z,12.96
2022-10-18T09:12:27.467Z,12.98
2022-10-18T09:15:12.543Z,13.06
2022-10-18T09:18:06.654Z,13.17
2022-10-18T09:20:57.324Z,13.45
2022-10-18T09:24:14.783Z,14.07
2022-10-18T09:26:48.787Z,14.41
2022-10-18T09:29:34.549Z,14.57
2022-10-18T09:32:32.451Z,14.66
2022-10-18T09:35:15.000Z,14.73
2022-10-18T09:37:43.748Z,14.79
2022-10-18T09:40:25.878Z,14.94
2022-10-18T09:43:21.103Z,15.15
2022-10-18T09:45:49.217Z,15.32
2022-10-18T09:48:29.713Z,15.36
2022-10-18T09:51:12.497Z,15.37
2022-10-18T09:54:01.579Z,15.43
2022-10-18T09:56:46.382Z,15.43
2022-10-18T09:59:44.496Z,15.48
2022-10-18T10:02:18.428Z,15.38
2022-10-18T10:04:45.394Z,15.46
2022-10-18T10:07:20.508Z,15.31
2022-10-18T10:09:57.465Z,15.42
2022-10-18T10:12:36.978Z,15.35
2022-10-18T10:15:23.131Z,15.44
2022-10-18T10:18:22.807Z,15.43
2022-10-18T10:20:56.176Z,15.53
2022-10-18T10:23:47.476Z,15.81
2022-10-18T10:26:38.649Z,16.02
2022-10-18T10:29:47.081Z,16.23
2022-10-18T10:32:20.264Z,16.68
2022-10-18T10:34:47.315Z,17.03
2022-10-18T10:37:32.785Z,17.49
2022-10-18T10:40:35.531Z,17.91
2022-10-18T10:43:44.804Z,18.50
2022-10-18T10:46:15.332Z,18.68
2022-10-18T10:49:15.408Z,19.02
2022-10-18T10:51:44.167Z,19.24
2022-10-18T10:54:24.351Z,19.38
2022-10-18T10:57:11.031Z,19.87
2022-10-18T10:59:51.038Z,20.11
2022-10-18T11:02:32.276Z,20.26
2022-10-18T11:05:29.226Z,20.32
2022-10-18T11:08:02.292Z,19.93
2022-10-18T11:10:35.086Z,19.52
2022-10-18T11:13:39.222Z,19.17
2022-10-18T11:16:50.133Z,18.93
2022-10-18T11:19:58.855Z,18.56
2022-10-18T11:22:29.756Z,18.15
2022-10-18T11:24:56.964Z,17.98
2022-10-18T11:27:58.490Z,17.94
2022-10-18T11:30:56.401Z,17.48
2022-10-18T11:34:09.885Z,17.34
2022-10-18T11:37:26.635Z,17.14
2022-10-18T11:39:59.691Z,17.15
2022-10-18T11:42:58.400Z,16.92
2022-10-18T11:45:42.435Z,16.96
2022-10-18T11:48:49.951Z,16.88
2022-10-18T11:51:38.642Z,16.92
2022-10-18T11:54:19.043Z,16.73
2022-10-18T11:57:02.121Z,16.78
2022-10-18T11:59:39.485Z,16.66
2022-10-18T12:02:51.458Z,16.70
2022-10-18T12:05:23.497Z,16.58
2022-10-18T12:08:07.466Z,16.55
2022-10-18T12:10:53.078Z,16.65
2022-10-18T12:13:50.560Z,16.66
2022-10-18T12:16:38.983Z,16.63
2022-10-18T12:19:27.228Z,16.59
2022-10-18T12:22:10.371Z,16.52
2022-10-18T12:24:38.192Z,16.47
2022-10-18T12:27:05.469Z,16.50
2022-10-18T12:29:50.442Z,16.52
2022-10-18T12:32:33.032Z,16.49
2022-10-18T12:35:16.532Z,16.48
2022-10-18T12:38:21.172Z,16.40
2022-10-18T12:40:54.010Z,16.42
2022-10-18T12:43:39.290Z,16.43
2022-10-18T12:46:13.617Z,16.46
2022-10-18T12:48:48.669Z,16.42
2022-10-18T12:51:19.833Z,16.41
2022-10-18T12:54:11.730Z,16.32
2022-10-18T12:56:42.110Z,16.24
2022-10-18T12:59:15.133Z,16.25
2022-10-18T13:01:51.523Z,16.26
2022-10-18T13:04:27.684Z,16.18
2022-10-18T13:07:21.584Z,16.16
2022-10-18T13:10:14.915Z,16.17
2022-10-18T13:13:38.155Z,16.16
2022-10-18T13:16:22.914Z,16.16
2022-10-18T13:19:11.812Z,16.10
2022-10-18T13:22:12.557Z,16.11
2022-10-18T13:24:47.597Z,16.10
2022-10-18T13:27:46.758Z,16.07
2022-10-18T13:30:31.539Z,16.08
2022-10-18T13:33:36.511Z,15.99
2022-10-18T13:36:31.017Z,16.04
2022-10-18T13:38:57.901Z,16.04
2022-10-18T13:41:55.082Z,16.09
2022-10-18T13:44:28.564Z,16.14
2022-10-18T13:46:55.389Z,16.16
2022-10-18T13:49:39.076Z,16.18
2022-10-18T13:52:40.993Z,16.27
2022-10-18T13:55:36.480Z,16.29
2022-10-18T13:58:44.621Z,16.24
2022-10-18T14:01:42.495Z,16.22
2022-10-18T14:04:38.902Z,16.19
2022-10-18T14:07:08.444Z,16.08
2022-10-18T14:09:49.995Z,16.09
2022-10-18T14:12:46.477Z,16.05
2022-10-18T14:15:27.429Z,16.02
2022-10-18T14:18:15.180Z,16.00
2022-10-18T14:21:08.649Z,15.97
2022-10-18T14:23:42.467Z,15.94
2022-10-18T14:26:15.286Z,15.88
2022-10-18T14:28:59.149Z,15.89
2022-10-18T14:31:27.800Z,15.87
2022-10-18T14:33:58.539Z,15.83
2022-10-18T14:36:33.846Z,15.81
2022-10-18T14:39:05.026Z,15.76
2022-10-18T14:41:51.375Z,15.72
2022-10-18T14:44:21.022Z,15.71
2022-10-18T14:47:09.512Z,15.62
2022-10-18T14:49:44.719Z,15.56
2022-10-18T14:52:21.971Z,15.54
2022-10-18T14:54:51.168Z,15.48
2022-10-18T14:57:35.271Z,15.45
2022-10-18T15:00:08.621Z,15.40
2022-10-18T15:02:39.476Z,15.40
2022-10-18T15:05:16.520Z,15.35
2022-10-18T15:07:44.830Z,15.33
2022-10-18T15:10:27.800Z,15.29
2022-10-18T15:13:16.201Z,15.23
2022-10-18T15:15:44.605Z,15.17
2022-10-18T15:18:24.526Z,15.13
2022-10-18T15:21:22.767Z,15.12
2022-10-18T15:23:51.311Z,15.08
2022-10-18T15:26:31.181Z,15.07
2022-10-18T15:29:01.531Z,15.02
2022-10-18T15:31:39.923Z,14.98
2022-10-18T15:34:22.441Z,14.92
2022-10-18T15:36:51.675Z,14.88
2022-10-18T15:39:29.275Z,14.83
2022-10-18T15:42:02.229Z,14.78
2022-10-18T15:44:51.352Z,14.76
2022-10-18T15:47:21.603Z,14.74
2022-10-18T15:49:56.053Z,14.71
2022-10-18T15:52:42.708Z,14.65
2022-10-18T15:55:31.524Z,14.65
2022-10-18T15:58:48.769Z,14.58
2022-10-18T16:01:23.197Z,14.51
2022-10-18T16:03:52.045Z,14.51
2022-10-18T16:06:19.338Z,14.44
2022-10-18T16:08:50.514Z,14.46
2022-10-18T16:11:25.574Z,14.38
2022-10-18T16:13:56.459Z,14.38
2022-10-18T16:16:29.406Z,14.30
2022-10-18T16:18:57.595Z,14.19
2022-10-18T16:21:31.821Z,14.18
2022-10-18T16:23:59.159Z,14.10
2022-10-18T16:26:27.704Z,14.05
2022-10-18T16:28:55.910Z,14.03
2022-10-18T16:31:30.157Z,13.96
2022-10-18T16:33:57.878Z,13.91
2022-10-18T16:36:28.991Z,13.80
2022-10-18T16:38:57.895Z,13.75
2022-10-18T16:41:25.244Z,13.69
2022-10-18T16:43:52.206Z,13.64
2022-10-18T16:46:28.851Z,13.51
2022-10-18T16:48:57.005Z,13.46
2022-10-18T16:51:24.783Z,13.40
2022-10-18T16:53:53.344Z,13.33
2022-10-18T16:56:28.552Z,13.24
2022-10-18T16:58:55.968Z,13.19
2022-10-18T17:01:24.641Z,13.11
2022-10-18T17:03:53.017Z,13.03
2022-10-18T17:06:29.378Z,12.95
2022-10-18T17:08:57.972Z,12.89
2022-10-18T17:11:27.559Z,12.82
2022-10-18T17:13:55.210Z,12.77
2022-10-18T17:16:34.121Z,12.73
2022-10-18T17:19:05.644Z,12.64
2022-10-18T17:21:33.442Z,12.59
2022-10-18T17:24:05.736Z,12.55
2022-10-18T17:26:34.241Z,12.50
2022-10-18T17:29:05.452Z,12.46
2022-10-18T17:31:33.505Z,12.41
2022-10-18T17:34:01.784Z,12.37
2022-10-18T17:36:31.654Z,12.29
2022-10-18T17:38:59.251Z,12.23
2022-10-18T17:41:26.304Z,12.17
2022-10-18T17:43:53.286Z,12.15
2022-10-18T17:46:20.484Z,12.12
2022-10-18T17:48:47.883Z,12.07
2022-10-18T17:51:17.000Z,11.99
2022-10-18T17:53:44.665Z,11.98
2022-10-18T17:56:13.007Z,11.94
2022-10-18T17:58:43.037Z,11.91
2022-10-18T18:01:21.244Z,11.83
2022-10-18T18:03:48.165Z,11.77
2022-10-18T18:06:20.329Z,11.74
2022-10-18T18:08:48.475Z,11.67
2022-10-18T18:11:17.271Z,11.61
2022-10-18T18:13:44.190Z,11.58
2022-10-18T18:16:19.292Z,11.54
2022-10-18T18:18:49.348Z,11.49
2022-10-18T18:21:16.606Z,11.46
2022-10-18T18:23:44.204Z,11.42
2022-10-18T18:26:11.383Z,11.39
2022-10-18T18:28:38.718Z,11.34
2022-10-18T18:31:23.415Z,11.30
2022-10-18T18:33:55.593Z,11.25
2022-10-18T18:36:24.955Z,11.24
2022-10-18T18:38:56.895Z,11.19
2022-10-18T18:41:27.139Z,11.15
2022-10-18T18:44:05.163Z,11.10
2022-10-18T18:46:38.206Z,11.07
2022-10-18T18:49:07.924Z,10.99
2022-10-18T18:51:40.049Z,10.96
2022-10-18T18:54:10.124Z,10.92
2022-10-18T18:56:37.635Z,10.86
2022-10-18T18:59:05.321Z,10.83
2022-10-18T19:01:35.833Z,10.82
2022-10-18T19:04:04.014Z,10.74
2022-10-18T19:06:43.521Z,10.67
2022-10-18T19:09:21.932Z,10.68
2022-10-18T19:11:54.420Z,10.66
2022-10-18T19:14:24.595Z,10.60
2022-10-18T19:17:01.307Z,10.56
2022-10-18T19:19:31.563Z,10.53
2022-10-18T19:22:01.875Z,10.46
2022-10-18T19:24:30.359Z,10.46
2022-10-18T19:27:04.436Z,10.39
2022-10-18T19:29:36.457Z,10.36
2022-10-18T19:32:07.223Z,10.32
2022-10-18T19:34:35.563Z,10.25
2022-10-18T19:37:02.448Z,10.27
2022-10-18T19:39:34.990Z,10.17
2022-10-18T19:42:14.700Z,10.15
2022-10-18T19:44:44.502Z,10.14
2022-10-18T19:47:14.204Z,10.06
2022-10-18T19:49:44.606Z,10.06
2022-10-18T19:52:12.350Z,10.03
2022-10-18T19:54:39.558Z,10.00
2022-10-18T19:57:06.847Z,9.95
2022-10-18T19:59:35.783Z,9.94
2022-10-18T20:02:04.568Z,9.91
2022-10-18T20:04:34.415Z,9.89
2022-10-18T20:07:02.626Z,9.79
2022-10-18T20:09:29.729Z,9.75
2022-10-18T20:11:56.629Z,9.74
2022-10-18T20:14:23.683Z,9.64
2022-10-18T20:16:50.605Z,9.66
2022-10-18T20:19:17.544Z,9.64
2022-10-18T20:21:44.461Z,9.61
2022-10-18T20:24:11.773Z,9.59
2022-10-18T20:26:39.529Z,9.55
2022-10-18T20:29:07.841Z,9.53
2022-10-18T20:31:38.179Z,9.45
2022-10-18T20:34:11.868Z,9.41
2022-10-18T20:36:38.987Z,9.36
2022-10-18T20:39:06.891Z,9.37
2022-10-18T20:41:37.899Z,9.36
2022-10-18T20:44:08.387Z,9.33
2022-10-18T20:46:37.635Z,9.29
2022-10-18T20:49:07.103Z,9.24
2022-10-18T20:51:35.193Z,9.19
2022-10-18T20:56:34.243Z,9.13
2022-10-18T20:59:01.851Z,9.13
2022-10-18T21:01:32.758Z,9.06
2022-10-18T21:04:06.255Z,9.04
2022-10-18T21:06:42.601Z,9.04
2022-10-18T21:09:19.170Z,8.99
2022-10-18T21:11:49.671Z,8.96
2022-10-18T21:14:19.713Z,8.91
2022-10-18T21:16:47.739Z,8.88
2022-10-18T21:19:26.688Z,8.90
2022-10-18T21:21:58.285Z,8.87
2022-10-18T21:24:26.489Z,8.83
2022-10-18T21:26:53.568Z,8.78
2022-10-18T21:29:22.615Z,8.73
2022-10-18T21:31:53.668Z,8.70
2022-10-18T21:34:20.958Z,8.69
2022-10-18T21:36:48.359Z,8.67
2022-10-18T21:39:20.195Z,8.58
2022-10-18T21:41:47.749Z,8.56
2022-10-18T21:44:16.119Z,8.59
2022-10-18T21:46:43.856Z,8.54
2022-10-18T21:49:11.299Z,8.54
2022-10-18T21:51:39.082Z,8.46
2022-10-18T21:54:11.194Z,8.43
2022-10-18T21:56:38.176Z,8.42
2022-10-18T21:59:05.389Z,8.36
2022-10-18T22:01:38.115Z,8.34
2022-10-18T22:04:16.306Z,8.33
2022-10-18T22:06:43.182Z,8.30
2022-10-18T22:09:10.198Z,8.26
2022-10-18T22:11:49.336Z,8.25
2022-10-18T22:14:16.371Z,8.21
2022-10-18T22:16:43.304Z,8.22
2022-10-18T22:19:10.428Z,8.21
2022-10-18T22:21:37.356Z,8.16
2022-10-18T22:24:08.720Z,8.13
2022-10-18T22:26:40.075Z,8.10
2022-10-18T22:29:12.491Z,8.03
2022-10-18T22:31:44.369Z,8.03
2022-10-18T22:34:16.407Z,8.07
2022-10-18T22:36:43.455Z,8.01
2022-10-18T22:39:14.159Z,8.00
2022-10-18T22:41:41.998Z,8.05
2022-10-18T22:44:12.007Z,8.03
2022-10-18T22:46:40.160Z,8.00
2022-10-18T22:49:07.599Z,8.02
2022-10-18T22:54:06.847Z,7.99
2022-10-18T22:56:33.811Z,7.98
2022-10-18T22:59:00.784Z,7.92
2022-10-18T23:01:27.737Z,7.94
2022-10-18T23:03:56.852Z,7.87
2022-10-18T23:06:33.699Z,7.89
2022-10-18T23:09:05.209Z,7.87
2022-10-18T23:11:33.511Z,7.85
2022-10-18T23:14:02.920Z,7.85
2022-10-18T23:16:30.229Z,7.84
2022-10-18T23:18:59.279Z,7.80
2022-10-18T23:21:28.640Z,7.81
2022-10-18T23:23:56.986Z,7.81
2022-10-18T23:26:26.723Z,7.70
2022-10-18T23:28:55.031Z,7.69
2022-10-18T23:31:25.560Z,7.74
2022-10-18T23:33:55.044Z,7.75
2022-10-18T23:36:22.920Z,7.73
2022-10-18T23:38:50.201Z,7.65
2022-10-18T23:41:18.088Z,7.66
2022-10-18T23:43:45.568Z,7.65
2022-10-18T23:46:14.289Z,7.64
2022-10-18T23:48:41.420Z,7.55
2022-10-18T23:51:09.135Z,7.49
2022-10-18T23:53:36.761Z,7.52
2022-10-18T23:56:13.722Z,7.52
2022-10-18T23:58:41.118Z,7.43
